createdAt,value
2019-05-10T00:01:50.601Z,99917.70
2019-05-10T00:04:36.513Z,99920.88
2019-05-10T00:07:22.721Z,99920.30
2019-05-10T00:09:50.253Z,99927.88
2019-05-10T00:12:20.184Z,99923.80
2019-05-10T00:14:50.363Z,99924.61
2019-05-10T00:17:19.818Z,99928.89
2019-05-10T00:19:48.301Z,99920.43
2019-05-10T00:22:16.648Z,99923.03
2019-05-10T00:25:01.686Z,99922.35
2019-05-10T00:27:15.196Z,99921.12
2019-05-10T00:29:43.501Z,99934.36
2019-05-10T00:32:11.828Z,99941.70
2019-05-10T00:34:40.118Z,99945.58
2019-05-10T00:37:09.296Z,99950.53
2019-05-10T00:39:37.578Z,99943.74
2019-05-10T00:42:05.874Z,99939.91
2019-05-10T00:44:34.213Z,99946.35
2019-05-10T00:47:02.665Z,99955.86
2019-05-10T00:49:31.577Z,99950.08
2019-05-10T00:52:00.861Z,99959.59
2019-05-10T00:54:29.214Z,99962.66
2019-05-10T00:56:57.596Z,99957.67
2019-05-10T00:59:25.917Z,99961.08
2019-05-10T01:01:54.233Z,99959.25
2019-05-10T01:04:22.511Z,99957.11
2019-05-10T01:06:50.831Z,99961.19
2019-05-10T01:09:19.133Z,99955.95
2019-05-10T01:11:47.516Z,99955.84
2019-05-10T01:14:16.190Z,99954.48
2019-05-10T01:16:44.667Z,99955.84
2019-05-10T01:19:12.923Z,99958.25
2019-05-10T01:21:41.365Z,99958.02
2019-05-10T01:24:09.726Z,99962.64
2019-05-10T01:26:38.011Z,99960.73
2019-05-10T01:29:06.310Z,99963.45
2019-05-10T01:31:34.669Z,99966.95
2019-05-10T01:34:02.977Z,99962.77
2019-05-10T01:36:31.256Z,99960.83
2019-05-10T01:38:59.714Z,99951.66
2019-05-10T01:41:27.995Z,99950.88
2019-05-10T01:43:56.331Z,99954.17
2019-05-10T01:46:25.018Z,99955.17
2019-05-10T01:48:53.386Z,99951.66
2019-05-10T01:51:21.664Z,99959.33
2019-05-10T01:53:49.962Z,99960.02
2019-05-10T01:56:18.275Z,99959.58
2019-05-10T01:58:46.572Z,99962.50
2019-05-10T02:01:14.860Z,99958.77
2019-05-10T02:03:43.200Z,99968.85
2019-05-10T02:06:11.609Z,99968.61
2019-05-10T02:08:39.920Z,99968.61
2019-05-10T02:11:08.207Z,99969.63
2019-05-10T02:13:36.631Z,99969.63
2019-05-10T02:16:05.064Z,99975.88
2019-05-10T02:18:34.058Z,99972.34
2019-05-10T02:21:02.338Z,99968.27
2019-05-10T02:23:30.647Z,99963.66
2019-05-10T02:26:08.917Z,99958.77
2019-05-10T02:28:28.973Z,99960.81
2019-05-10T02:30:57.406Z,99960.57
2019-05-10T02:33:25.700Z,99963.86
2019-05-10T02:35:53.987Z,99965.45
2019-05-10T02:38:22.320Z,99962.74
2019-05-10T02:40:50.604Z,99964.30
2019-05-10T02:43:18.890Z,99965.66
2019-05-10T02:45:47.226Z,99971.44
2019-05-10T02:48:15.997Z,99970.66
2019-05-10T02:50:44.296Z,99967.36
2019-05-10T02:53:12.609Z,99976.19
2019-05-10T02:55:40.962Z,99972.45
2019-05-10T02:58:09.271Z,99976.41
2019-05-10T03:00:40.792Z,99975.83
2019-05-10T03:03:09.125Z,99974.12
2019-05-10T03:05:37.407Z,99978.55
2019-05-10T03:08:06.650Z,99982.05
2019-05-10T03:10:34.944Z,99980.78
2019-05-10T03:13:04.032Z,99977.63
2019-05-10T03:15:38.467Z,99980.66
2019-05-10T03:18:06.792Z,99985.30
2019-05-10T03:20:35.710Z,99982.34
2019-05-10T03:23:04.109Z,99988.22
2019-05-10T03:25:33.099Z,99998.73
2019-05-10T03:28:01.402Z,100013.20
2019-05-10T03:30:29.710Z,100014.02
2019-05-10T03:32:58.584Z,100017.32
2019-05-10T03:35:26.897Z,100025.62
2019-05-10T03:37:55.211Z,100034.63
2019-05-10T03:40:23.496Z,100030.41
2019-05-10T03:42:51.924Z,100026.53
2019-05-10T03:45:20.228Z,100030.98
2019-05-10T03:47:48.610Z,100047.59
2019-05-10T03:50:16.922Z,100047.54
2019-05-10T03:52:45.203Z,100047.48
2019-05-10T03:55:13.522Z,100042.63
2019-05-10T03:57:41.800Z,100046.46
2019-05-10T04:00:11.720Z,100046.34
2019-05-10T04:02:40.036Z,100050.92
2019-05-10T04:05:08.315Z,100054.36
2019-05-10T04:07:36.620Z,100065.17
2019-05-10T04:10:06.701Z,100071.45
2019-05-10T04:12:35.156Z,100072.88
2019-05-10T04:15:04.613Z,100078.84
2019-05-10T04:17:32.919Z,100083.66
2019-05-10T04:20:01.260Z,100090.45
2019-05-10T04:22:29.612Z,100095.17
2019-05-10T04:24:58.155Z,100105.06
2019-05-10T04:27:32.207Z,100099.16
2019-05-10T04:29:56.588Z,100107.95
2019-05-10T04:32:25.395Z,100116.56
2019-05-10T04:34:53.669Z,100111.77
2019-05-10T04:37:22.721Z,100118.41
2019-05-10T04:39:51.051Z,100114.97
2019-05-10T04:42:19.345Z,100115.78
2019-05-10T04:44:47.630Z,100118.70
2019-05-10T04:47:16.036Z,100124.61
2019-05-10T04:49:44.328Z,100126.75
2019-05-10T04:52:12.645Z,100135.61
2019-05-10T04:54:41.511Z,100134.09
2019-05-10T04:57:09.897Z,100138.23
2019-05-10T04:59:38.339Z,100136.09
2019-05-10T05:02:06.957Z,100143.12
2019-05-10T05:04:35.366Z,100151.95
2019-05-10T05:07:03.657Z,100148.62
2019-05-10T05:09:32.093Z,100156.25
2019-05-10T05:12:00.407Z,100154.73
2019-05-10T05:14:28.789Z,100152.77
2019-05-10T05:16:57.151Z,100157.85
2019-05-10T05:19:26.206Z,100166.23
2019-05-10T05:21:54.911Z,100165.90
2019-05-10T05:24:24.465Z,100169.15
2019-05-10T05:26:52.958Z,100175.52
2019-05-10T05:29:21.272Z,100181.26
2019-05-10T05:31:54.109Z,100190.74
2019-05-10T05:34:19.723Z,100188.03
2019-05-10T05:36:48.014Z,100205.97
2019-05-10T05:39:16.327Z,100200.47
2019-05-10T05:41:48.924Z,100211.95
2019-05-10T05:44:14.934Z,100211.95
2019-05-10T05:46:43.218Z,100216.80
2019-05-10T05:49:11.541Z,100211.14
2019-05-10T05:51:39.827Z,100216.16
2019-05-10T05:54:08.249Z,100222.71
2019-05-10T05:56:36.644Z,100226.20
2019-05-10T05:59:08.607Z,100239.84
2019-05-10T06:01:34.977Z,100234.42
2019-05-10T06:04:06.490Z,100234.58
2019-05-10T06:06:33.320Z,100243.98
2019-05-10T06:09:01.776Z,100246.83
2019-05-10T06:11:35.669Z,100250.36
2019-05-10T06:14:03.958Z,100251.47
2019-05-10T06:16:31.015Z,100254.09
2019-05-10T06:18:59.410Z,100265.26
2019-05-10T06:21:27.886Z,100267.02
2019-05-10T06:23:59.281Z,100272.97
2019-05-10T06:26:28.754Z,100275.14
2019-05-10T06:29:03.316Z,100272.57
2019-05-10T06:31:26.874Z,100282.72
2019-05-10T06:33:55.246Z,100291.14
2019-05-10T06:36:23.702Z,100290.59
2019-05-10T06:38:51.977Z,100297.70
2019-05-10T06:41:20.267Z,100298.90
2019-05-10T06:43:51.133Z,100311.09
2019-05-10T06:46:18.593Z,100318.87
2019-05-10T06:48:47.067Z,100324.63
2019-05-10T06:51:15.408Z,100331.72
2019-05-10T06:53:52.226Z,100329.80
2019-05-10T06:56:13.734Z,100333.61
2019-05-10T06:58:42.135Z,100336.42
2019-05-10T07:01:10.418Z,100336.56
2019-05-10T07:03:38.714Z,100344.09
2019-05-10T07:06:07.019Z,100346.69
2019-05-10T07:08:43.624Z,100349.97
2019-05-10T07:11:05.452Z,100348.94
2019-05-10T07:13:33.745Z,100357.23
2019-05-10T07:16:03.619Z,100361.94
2019-05-10T07:18:32.688Z,100363.14
2019-05-10T07:21:06.873Z,100370.85
2019-05-10T07:23:31.040Z,100368.88
2019-05-10T07:25:59.315Z,100374.23
2019-05-10T07:28:27.637Z,100376.83
2019-05-10T07:30:55.944Z,100381.80
2019-05-10T07:33:24.239Z,100389.03
2019-05-10T07:35:52.675Z,100388.48
2019-05-10T07:38:23.539Z,100393.83
2019-05-10T07:40:51.003Z,100399.91
2019-05-10T07:43:26.486Z,100402.55
2019-05-10T07:45:49.536Z,100404.94
2019-05-10T07:48:17.857Z,100405.89
2019-05-10T07:50:49.255Z,100411.38
2019-05-10T07:53:22.369Z,100417.79
2019-05-10T07:55:46.313Z,100416.57
2019-05-10T07:58:14.651Z,100427.58
2019-05-10T08:00:44.378Z,100430.53
2019-05-10T08:03:16.808Z,100437.88
2019-05-10T08:05:46.440Z,100437.56
2019-05-10T08:08:13.222Z,100451.58
2019-05-10T08:10:41.568Z,100451.69
2019-05-10T08:13:09.859Z,100448.72
2019-05-10T08:15:38.610Z,100457.58
2019-05-10T08:18:09.643Z,100463.80
2019-05-10T08:20:49.346Z,100456.65
2019-05-10T08:23:07.098Z,100465.23
2019-05-10T08:25:41.043Z,100474.03
2019-05-10T08:28:05.668Z,100481.75
2019-05-10T08:30:51.300Z,100477.79
2019-05-10T08:33:14.434Z,100484.02
2019-05-10T08:35:45.599Z,100493.57
2019-05-10T08:38:12.943Z,100495.50
2019-05-10T08:40:42.844Z,100496.78
2019-05-10T08:43:16.124Z,100506.10
2019-05-10T08:45:45.189Z,100509.14
2019-05-10T08:48:13.095Z,100514.95
2019-05-10T08:50:53.059Z,100520.12
2019-05-10T08:53:16.468Z,100519.11
2019-05-10T08:55:43.288Z,100523.80
2019-05-10T08:58:12.497Z,100528.19
2019-05-10T09:00:53.330Z,100530.83
2019-05-10T09:03:18.032Z,100531.65
2019-05-10T09:05:43.247Z,100534.36
2019-05-10T09:08:20.127Z,100537.86
2019-05-10T09:10:42.162Z,100538.16
2019-05-10T09:13:12.885Z,100538.97
2019-05-10T09:15:51.348Z,100548.05
2019-05-10T09:18:12.764Z,100541.59
2019-05-10T09:20:42.073Z,100551.50
2019-05-10T09:23:15.518Z,100553.25
2019-05-10T09:25:42.564Z,100556.21
2019-05-10T09:28:16.493Z,100557.48
2019-05-10T09:30:54.252Z,100561.12
2019-05-10T09:33:14.336Z,100563.86
2019-05-10T09:35:46.872Z,100568.64
2019-05-10T09:38:12.498Z,100565.05
2019-05-10T09:40:50.545Z,100570.95
2019-05-10T09:43:14.389Z,100576.02
2019-05-10T09:45:42.377Z,100575.91
2019-05-10T09:48:12.116Z,100575.99
2019-05-10T09:50:46.315Z,100578.47
2019-05-10T09:53:13.360Z,100584.45
2019-05-10T09:55:45.563Z,100586.84
2019-05-10T09:58:11.618Z,100590.11
2019-05-10T10:00:39.901Z,100592.98
2019-05-10T10:03:08.544Z,100596.81
2019-05-10T10:05:39.909Z,100593.41
2019-05-10T10:08:09.124Z,100601.97
2019-05-10T10:10:37.372Z,100607.23
2019-05-10T10:13:13.749Z,100610.86
2019-05-10T10:15:37.337Z,100613.80
2019-05-10T10:18:05.845Z,100615.72
2019-05-10T10:20:36.066Z,100618.52
2019-05-10T10:23:07.318Z,100622.92
2019-05-10T10:25:40.747Z,100631.00
2019-05-10T10:28:10.300Z,100634.38
2019-05-10T10:30:37.379Z,100634.20
2019-05-10T10:33:11.845Z,100639.72
2019-05-10T10:35:37.798Z,100638.28
2019-05-10T10:38:08.140Z,100637.66
2019-05-10T10:40:44.213Z,100641.81
2019-05-10T10:43:07.547Z,100637.27
2019-05-10T10:45:37.626Z,100642.62
2019-05-10T10:48:10.556Z,100635.17
2019-05-10T10:50:36.390Z,100650.37
2019-05-10T10:53:04.730Z,100645.78
2019-05-10T10:55:36.936Z,100652.30
2019-05-10T10:58:03.106Z,100650.36
2019-05-10T11:00:33.807Z,100654.05
2019-05-10T11:03:03.146Z,100656.88
2019-05-10T11:05:31.418Z,100661.24
2019-05-10T11:08:01.109Z,100661.55
2019-05-10T11:10:31.402Z,100657.42
2019-05-10T11:13:02.315Z,100659.27
2019-05-10T11:15:35.773Z,100667.58
2019-05-10T11:18:00.760Z,100658.52
2019-05-10T11:20:31.527Z,100666.98
2019-05-10T11:22:59.109Z,100668.28
2019-05-10T11:25:27.628Z,100669.38
2019-05-10T11:27:58.709Z,100678.90
2019-05-10T11:30:26.116Z,100681.27
2019-05-10T11:32:54.469Z,100673.12
2019-05-10T11:35:28.532Z,100682.05
2019-05-10T11:37:53.918Z,100680.34
2019-05-10T11:40:29.836Z,100689.64
2019-05-10T11:42:52.368Z,100687.41
2019-05-10T11:45:21.032Z,100686.06
2019-05-10T11:47:57.199Z,100688.32
2019-05-10T11:50:31.425Z,100689.18
2019-05-10T11:52:51.289Z,100687.77
2019-05-10T11:55:21.616Z,100689.55
2019-05-10T11:58:01.289Z,100692.16
2019-05-10T12:00:29.135Z,100688.63
2019-05-10T12:03:11.949Z,100691.05
2019-05-10T12:05:23.273Z,100691.15
2019-05-10T12:07:54.136Z,100702.10
2019-05-10T12:10:24.899Z,100702.06
2019-05-10T12:13:05.997Z,100692.81
2019-05-10T12:15:25.464Z,100694.55
2019-05-10T12:17:58.497Z,100705.88
2019-05-10T12:20:37.166Z,100703.00
2019-05-10T12:22:51.844Z,100699.16
2019-05-10T12:25:37.568Z,100706.17
2019-05-10T12:27:52.408Z,100708.48
2019-05-10T12:30:21.510Z,100715.08
2019-05-10T12:33:05.083Z,100715.66
2019-05-10T12:35:21.318Z,100719.62
2019-05-10T12:37:54.177Z,100717.44
2019-05-10T12:40:23.846Z,100723.89
2019-05-10T12:42:50.291Z,100720.23
2019-05-10T12:45:22.941Z,100728.62
2019-05-10T12:47:51.615Z,100729.73
2019-05-10T12:50:19.184Z,100727.12
2019-05-10T12:52:53.644Z,100739.30
2019-05-10T12:55:17.939Z,100731.44
2019-05-10T12:57:47.881Z,100732.95
2019-05-10T13:00:16.219Z,100733.19
2019-05-10T13:02:50.512Z,100737.38
2019-05-10T13:05:15.691Z,100734.09
2019-05-10T13:07:44.280Z,100737.28
2019-05-10T13:10:12.926Z,100743.75
2019-05-10T13:12:47.398Z,100745.56
2019-05-10T13:15:11.979Z,100752.84
2019-05-10T13:17:43.996Z,100757.15
2019-05-10T13:20:10.334Z,100759.27
2019-05-10T13:22:39.455Z,100757.47
2019-05-10T13:25:10.279Z,100761.95
2019-05-10T13:27:38.984Z,100758.09
2019-05-10T13:30:10.191Z,100764.70
2019-05-10T13:32:38.449Z,100763.52
2019-05-10T13:35:06.840Z,100773.66
2019-05-10T13:37:35.141Z,100782.80
2019-05-10T13:40:07.772Z,100776.69
2019-05-10T13:42:36.424Z,100779.31
2019-05-10T13:45:05.644Z,100788.86
2019-05-10T13:47:34.056Z,100787.05
2019-05-10T13:50:02.343Z,100790.02
2019-05-10T13:52:37.601Z,100792.62
2019-05-10T13:55:00.843Z,100791.83
2019-05-10T13:57:29.091Z,100787.73
2019-05-10T13:59:57.589Z,100788.63
2019-05-10T14:02:32.531Z,100787.27
2019-05-10T14:04:56.060Z,100794.37
2019-05-10T14:07:26.051Z,100798.12
2019-05-10T14:09:54.673Z,100797.47
2019-05-10T14:12:23.931Z,100802.22
2019-05-10T14:14:55.605Z,100807.03
2019-05-10T14:17:23.177Z,100806.48
2019-05-10T14:19:51.612Z,100800.47
2019-05-10T14:22:19.931Z,100804.70
2019-05-10T14:24:53.333Z,100808.94
2019-05-10T14:27:18.298Z,100811.49
2019-05-10T14:29:46.641Z,100811.30
2019-05-10T14:32:14.993Z,100806.55
2019-05-10T14:34:44.563Z,100807.03
2019-05-10T14:37:14.278Z,100813.58
2019-05-10T14:39:43.613Z,100812.20
2019-05-10T14:42:14.723Z,100809.92
2019-05-10T14:44:43.344Z,100809.69
2019-05-10T14:47:11.621Z,100810.27
2019-05-10T14:49:42.260Z,100814.49
2019-05-10T14:52:10.371Z,100818.01
2019-05-10T14:54:43.640Z,100818.80
2019-05-10T14:57:08.746Z,100824.22
2019-05-10T14:59:37.095Z,100815.42
2019-05-10T15:02:05.523Z,100815.77
2019-05-10T15:04:49.175Z,100825.28
2019-05-10T15:07:08.739Z,100823.19
2019-05-10T15:09:33.877Z,100824.66
2019-05-10T15:12:02.276Z,100828.55
2019-05-10T15:14:30.582Z,100827.91
2019-05-10T15:16:58.869Z,100823.85
2019-05-10T15:19:30.949Z,100830.74
2019-05-10T15:21:57.345Z,100827.80
2019-05-10T15:24:25.702Z,100826.94
2019-05-10T15:26:54.489Z,100828.09
2019-05-10T15:29:24.769Z,100835.23
2019-05-10T15:31:52.857Z,100840.36
2019-05-10T15:34:21.876Z,100839.20
2019-05-10T15:36:50.369Z,100833.61
2019-05-10T15:39:23.058Z,100841.15
2019-05-10T15:41:53.588Z,100832.95
2019-05-10T15:44:18.874Z,100841.25
2019-05-10T15:46:47.263Z,100837.26
2019-05-10T15:49:22.750Z,100838.02
2019-05-10T15:51:49.073Z,100836.31
2019-05-10T15:54:16.634Z,100840.41
2019-05-10T15:56:44.931Z,100843.13
2019-05-10T15:59:19.144Z,100845.02
2019-05-10T16:01:45.720Z,100845.52
2019-05-10T16:04:13.323Z,100848.45
2019-05-10T16:06:41.622Z,100852.25
2019-05-10T16:09:17.501Z,100846.69
2019-05-10T16:11:40.349Z,100848.19
2019-05-10T16:14:08.640Z,100849.10
2019-05-10T16:16:39.684Z,100844.19
2019-05-10T16:19:06.970Z,100852.99
2019-05-10T16:21:35.319Z,100852.08
2019-05-10T16:24:03.636Z,100844.88
2019-05-10T16:26:31.972Z,100847.16
2019-05-10T16:29:03.296Z,100845.69
2019-05-10T16:31:31.404Z,100847.84
2019-05-10T16:33:59.680Z,100849.55
2019-05-10T16:36:29.846Z,100851.46
2019-05-10T16:39:01.341Z,100852.14
2019-05-10T16:41:28.092Z,100859.66
2019-05-10T16:44:00.232Z,100860.54
2019-05-10T16:46:28.777Z,100860.98
2019-05-10T16:48:57.135Z,100862.51
2019-05-10T16:51:25.424Z,100853.80
2019-05-10T16:53:53.837Z,100864.27
2019-05-10T16:56:22.121Z,100866.07
2019-05-10T16:58:52.984Z,100859.29
2019-05-10T17:01:25.040Z,100861.04
2019-05-10T17:03:59.154Z,100858.84
2019-05-10T17:06:20.607Z,100860.54
2019-05-10T17:08:49.581Z,100853.67
2019-05-10T17:11:17.966Z,100862.28
2019-05-10T17:13:46.276Z,100858.02
2019-05-10T17:16:17.065Z,100864.02
2019-05-10T17:18:50.054Z,100859.23
2019-05-10T17:21:14.879Z,100855.66
2019-05-10T17:23:46.820Z,100856.34
2019-05-10T17:26:14.329Z,100852.40
2019-05-10T17:28:42.614Z,100859.75
2019-05-10T17:31:10.906Z,100855.07
2019-05-10T17:33:42.814Z,100853.35
2019-05-10T17:36:09.273Z,100851.88
2019-05-10T17:38:37.595Z,100849.56
2019-05-10T17:41:05.983Z,100851.97
2019-05-10T17:43:34.286Z,100849.91
2019-05-10T17:46:02.598Z,100849.41
2019-05-10T17:48:30.920Z,100853.17
2019-05-10T17:50:59.220Z,100845.66
2019-05-10T17:53:27.784Z,100848.49
2019-05-10T17:56:02.162Z,100857.77
2019-05-10T17:58:27.970Z,100855.05
2019-05-10T18:00:56.281Z,100862.27
2019-05-10T18:03:24.708Z,100865.23
2019-05-10T18:05:53.475Z,100864.19
2019-05-10T18:08:22.198Z,100861.08
2019-05-10T18:10:50.489Z,100864.20
2019-05-10T18:13:18.854Z,100860.36
2019-05-10T18:15:47.441Z,100861.09
2019-05-10T18:18:15.723Z,100862.56
2019-05-10T18:20:44.651Z,100856.86
2019-05-10T18:23:20.487Z,100860.48
2019-05-10T18:25:44.437Z,100862.48
2019-05-10T18:28:12.781Z,100875.75
2019-05-10T18:30:41.048Z,100868.06
2019-05-10T18:33:12.538Z,100867.92
2019-05-10T18:35:39.570Z,100867.50
2019-05-10T18:38:07.963Z,100871.90
2019-05-10T18:40:36.373Z,100869.33
2019-05-10T18:43:05.821Z,100878.05
2019-05-10T18:45:34.509Z,100876.77
2019-05-10T18:48:02.815Z,100876.34
2019-05-10T18:50:31.097Z,100882.17
2019-05-10T18:52:59.488Z,100888.22
2019-05-10T18:55:27.818Z,100895.47
2019-05-10T18:57:56.950Z,100897.10
2019-05-10T19:00:25.497Z,100899.73
2019-05-10T19:02:55.139Z,100900.98
2019-05-10T19:05:25.072Z,100911.57
2019-05-10T19:08:03.254Z,100914.86
2019-05-10T19:10:24.063Z,100910.20
2019-05-10T19:13:00.076Z,100914.20
2019-05-10T19:15:22.633Z,100919.22
2019-05-10T19:17:50.954Z,100923.44
2019-05-10T19:20:20.392Z,100930.97
2019-05-10T19:22:48.719Z,100926.84
2019-05-10T19:25:18.165Z,100925.04
2019-05-10T19:27:50.799Z,100931.56
2019-05-10T19:30:19.934Z,100929.48
2019-05-10T19:32:50.934Z,100934.65
2019-05-10T19:35:17.594Z,100939.91
2019-05-10T19:37:45.901Z,100939.25
2019-05-10T19:40:14.202Z,100943.43
2019-05-10T19:42:44.703Z,100942.44
2019-05-10T19:45:18.981Z,100952.30
2019-05-10T19:47:43.166Z,100946.98
2019-05-10T19:50:11.447Z,100951.28
2019-05-10T19:52:39.720Z,100963.59
2019-05-10T19:55:13.203Z,100969.32
2019-05-10T19:57:38.139Z,100965.25
2019-05-10T20:00:09.352Z,100975.10
2019-05-10T20:02:37.830Z,100975.20
2019-05-10T20:05:06.709Z,100987.03
2019-05-10T20:07:45.107Z,100984.77
2019-05-10T20:10:07.702Z,100990.53
2019-05-10T20:12:36.516Z,100993.59
2019-05-10T20:15:06.342Z,100999.41
2019-05-10T20:17:34.675Z,101002.64
2019-05-10T20:20:03.679Z,101008.50
2019-05-10T20:22:31.967Z,101004.73
2019-05-10T20:25:00.272Z,101007.02
2019-05-10T20:27:28.643Z,101005.17
2019-05-10T20:29:56.974Z,100998.79
2019-05-10T20:32:25.375Z,101000.49
2019-05-10T20:34:53.714Z,101002.64
2019-05-10T20:37:21.981Z,100993.80
2019-05-10T20:39:50.259Z,100997.91
2019-05-10T20:42:18.790Z,100981.80
2019-05-10T20:44:47.074Z,100979.17
2019-05-10T20:47:15.377Z,100977.07
2019-05-10T20:49:43.669Z,100967.12
2019-05-10T20:52:12.343Z,100970.21
2019-05-10T20:54:40.797Z,100963.64
2019-05-10T20:57:09.169Z,100962.36
2019-05-10T20:59:37.482Z,100957.03
2019-05-10T21:02:05.870Z,100963.56
2019-05-10T21:04:34.154Z,100959.09
2019-05-10T21:07:02.572Z,100963.27
2019-05-10T21:09:30.925Z,100960.14
2019-05-10T21:11:59.200Z,100953.94
2019-05-10T21:14:27.709Z,100957.54
2019-05-10T21:16:56.023Z,100956.48
2019-05-10T21:19:24.326Z,100961.37
2019-05-10T21:21:52.723Z,100962.45
2019-05-10T21:24:21.026Z,100960.31
2019-05-10T21:26:49.352Z,100959.26
2019-05-10T21:29:17.873Z,100959.78
2019-05-10T21:31:46.257Z,100963.31
2019-05-10T21:34:14.607Z,100969.55
2019-05-10T21:36:43.019Z,100955.27
2019-05-10T21:39:11.331Z,100958.80
2019-05-10T21:41:39.638Z,100963.94
2019-05-10T21:44:07.978Z,100963.67
2019-05-10T21:46:36.904Z,100962.59
2019-05-10T21:49:05.295Z,100963.16
2019-05-10T21:51:33.804Z,100965.09
2019-05-10T21:54:02.159Z,100964.30
2019-05-10T21:56:30.460Z,100967.11
2019-05-10T21:58:58.843Z,100974.19
2019-05-10T22:01:27.764Z,100975.08
2019-05-10T22:03:56.116Z,100967.88
2019-05-10T22:06:24.427Z,100965.73
2019-05-10T22:08:52.712Z,100967.38
2019-05-10T22:11:21.043Z,100970.91
2019-05-10T22:13:49.399Z,100965.80
2019-05-10T22:16:18.463Z,100967.21
2019-05-10T22:18:48.399Z,100972.37
2019-05-10T22:21:16.676Z,100973.23
2019-05-10T22:23:44.972Z,100975.69
2019-05-10T22:26:13.342Z,100971.11
2019-05-10T22:28:41.688Z,100974.13
2019-05-10T22:31:11.610Z,100975.52
2019-05-10T22:33:39.982Z,100970.93
2019-05-10T22:36:08.267Z,100964.27
2019-05-10T22:38:36.686Z,100961.59
2019-05-10T22:41:04.966Z,100964.84
2019-05-10T22:43:33.258Z,100965.43
2019-05-10T22:46:01.561Z,100966.54
2019-05-10T22:48:29.841Z,100961.45
2019-05-10T22:50:58.290Z,100966.06
2019-05-10T22:53:26.576Z,100962.83
2019-05-10T22:55:54.905Z,100960.42
2019-05-10T22:58:23.209Z,100959.95
2019-05-10T23:00:51.506Z,100951.58
2019-05-10T23:03:24.113Z,100950.25
2019-05-10T23:05:50.412Z,100948.93
2019-05-10T23:08:18.709Z,100959.72
2019-05-10T23:10:47.140Z,100955.98
2019-05-10T23:13:15.558Z,100957.39
2019-05-10T23:15:43.867Z,100961.75
2019-05-10T23:18:12.178Z,100959.63
2019-05-10T23:20:40.464Z,100957.45
2019-05-10T23:23:09.034Z,100953.72
2019-05-10T23:25:37.410Z,100955.64
2019-05-10T23:28:05.691Z,100951.04
2019-05-10T23:30:33.997Z,100948.61
2019-05-10T23:33:02.369Z,100949.69
2019-05-10T23:35:30.669Z,100946.20
2019-05-10T23:37:58.977Z,100950.81
2019-05-10T23:40:27.262Z,100947.55
2019-05-10T23:42:56.438Z,100946.70
2019-05-10T23:45:24.857Z,100942.92
2019-05-10T23:47:53.160Z,100945.89
2019-05-10T23:50:21.438Z,100946.42
2019-05-10T23:52:49.743Z,100950.47
2019-05-10T23:55:18.132Z,100950.70
2019-05-10T23:57:46.474Z,100946.11
